createdAt,value
2018-07-07T00:01:16.449Z,0.90
2018-07-07T00:03:45.221Z,0.97
2018-07-07T00:06:13.351Z,0.80
2018-07-07T00:08:41.460Z,1.30
2018-07-07T00:11:09.600Z,1.20
2018-07-07T00:13:38.425Z,0.73
2018-07-07T00:16:07.179Z,1.37
2018-07-07T00:18:35.390Z,1.07
2018-07-07T00:21:03.565Z,0.80
2018-07-07T00:23:31.779Z,0.83
2018-07-07T00:26:02.166Z,0.90
2018-07-07T00:28:30.797Z,0.90
2018-07-07T00:30:58.907Z,1.17
2018-07-07T00:33:27.060Z,0.90
2018-07-07T00:35:55.397Z,0.83
2018-07-07T00:38:23.701Z,1.07
2018-07-07T00:40:51.854Z,1.03
2018-07-07T00:43:20.008Z,0.70
2018-07-07T00:45:48.317Z,0.90
2018-07-07T00:48:16.486Z,0.70
2018-07-07T00:50:45.222Z,1.10
2018-07-07T00:53:13.482Z,0.93
2018-07-07T00:55:41.830Z,1.10
2018-07-07T00:58:09.988Z,1.00
2018-07-07T01:00:43.622Z,0.90
2018-07-07T01:03:11.773Z,0.93
2018-07-07T01:05:40.234Z,1.07
2018-07-07T01:08:08.451Z,1.10
2018-07-07T01:10:36.581Z,1.07
2018-07-07T01:13:04.686Z,1.43
2018-07-07T01:15:32.782Z,1.50
2018-07-07T01:18:01.082Z,1.00
2018-07-07T01:20:29.869Z,1.03
2018-07-07T01:22:58.857Z,1.00
2018-07-07T01:25:26.977Z,0.97
2018-07-07T01:27:55.079Z,0.90
2018-07-07T01:30:23.772Z,1.30
2018-07-07T01:32:52.141Z,1.10
2018-07-07T01:35:20.318Z,1.10
2018-07-07T01:37:48.631Z,1.10
2018-07-07T01:40:17.288Z,1.30
2018-07-07T01:42:45.412Z,1.77
2018-07-07T01:45:14.312Z,1.20
2018-07-07T01:47:42.453Z,1.10
2018-07-07T01:50:10.627Z,1.03
2018-07-07T01:52:38.889Z,1.20
2018-07-07T01:55:07.088Z,1.17
2018-07-07T01:57:36.175Z,1.10
2018-07-07T02:00:04.888Z,0.90
2018-07-07T02:02:33.096Z,1.00
2018-07-07T02:05:01.277Z,1.20
2018-07-07T02:07:30.083Z,1.10
2018-07-07T02:09:58.187Z,1.27
2018-07-07T02:12:27.044Z,1.03
2018-07-07T02:14:55.209Z,1.03
2018-07-07T02:17:23.315Z,0.93
2018-07-07T02:19:51.450Z,1.03
2018-07-07T02:22:22.704Z,1.03
2018-07-07T02:24:51.820Z,1.23
2018-07-07T02:27:20.627Z,1.40
2018-07-07T02:29:49.269Z,0.70
2018-07-07T02:32:17.448Z,1.20
2018-07-07T02:34:46.129Z,1.10
2018-07-07T02:37:14.517Z,1.40
2018-07-07T02:39:42.670Z,1.03
2018-07-07T02:42:10.951Z,1.27
2018-07-07T02:44:39.089Z,1.10
2018-07-07T02:47:07.287Z,1.17
2018-07-07T02:49:35.437Z,0.97
2018-07-07T02:52:03.567Z,1.03
2018-07-07T02:54:31.727Z,1.13
2018-07-07T02:57:00.228Z,0.90
2018-07-07T02:59:28.369Z,1.20
2018-07-07T03:01:56.518Z,1.13
2018-07-07T03:04:24.833Z,0.83
2018-07-07T03:06:52.992Z,0.93
2018-07-07T03:09:21.573Z,1.10
2018-07-07T03:11:49.749Z,0.70
2018-07-07T03:14:18.063Z,1.43
2018-07-07T03:16:46.419Z,1.27
2018-07-07T03:19:14.684Z,1.07
2018-07-07T03:21:42.862Z,1.60
2018-07-07T03:24:11.602Z,1.13
2018-07-07T03:26:39.831Z,1.57
2018-07-07T03:29:08.032Z,1.47
2018-07-07T03:31:36.372Z,1.30
2018-07-07T03:34:04.677Z,0.83
2018-07-07T03:36:32.863Z,1.40
2018-07-07T03:39:00.986Z,1.20
2018-07-07T03:41:29.782Z,1.30
2018-07-07T03:43:58.002Z,1.17
2018-07-07T03:46:26.126Z,0.90
2018-07-07T03:48:54.531Z,1.30
2018-07-07T03:51:23.369Z,1.20
2018-07-07T03:53:51.684Z,1.67
2018-07-07T03:56:20.118Z,1.30
2018-07-07T03:58:48.246Z,1.57
2018-07-07T04:01:16.411Z,1.60
2018-07-07T04:03:44.996Z,1.30
2018-07-07T04:06:13.166Z,1.00
2018-07-07T04:08:41.567Z,1.03
2018-07-07T04:11:09.863Z,1.60
2018-07-07T04:13:38.000Z,1.17
2018-07-07T04:16:06.466Z,1.33
2018-07-07T04:18:35.660Z,1.30
2018-07-07T04:21:05.066Z,1.03
2018-07-07T04:23:33.955Z,1.37
2018-07-07T04:26:02.341Z,1.10
2018-07-07T04:28:30.933Z,1.30
2018-07-07T04:30:59.530Z,1.20
2018-07-07T04:33:28.199Z,1.20
2018-07-07T04:35:56.365Z,1.20
2018-07-07T04:38:24.573Z,1.27
2018-07-07T04:40:53.534Z,1.43
2018-07-07T04:43:21.699Z,1.40
2018-07-07T04:45:49.822Z,1.70
2018-07-07T04:48:17.944Z,1.77
2018-07-07T04:50:46.122Z,1.80
2018-07-07T04:53:14.302Z,1.23
2018-07-07T04:55:42.575Z,1.80
2018-07-07T04:58:10.698Z,1.50
2018-07-07T05:00:38.913Z,1.92
2018-07-07T05:03:07.622Z,1.85
2018-07-07T05:05:35.810Z,2.33
2018-07-07T05:08:03.980Z,1.62
2018-07-07T05:10:32.492Z,2.05
2018-07-07T05:13:00.625Z,1.80
2018-07-07T05:15:28.798Z,1.82
2018-07-07T05:17:57.070Z,1.92
2018-07-07T05:20:25.232Z,2.42
2018-07-07T05:22:53.373Z,1.92
2018-07-07T05:25:21.582Z,2.30
2018-07-07T05:27:50.375Z,2.47
2018-07-07T05:30:18.496Z,2.10
2018-07-07T05:32:47.485Z,1.80
2018-07-07T05:35:15.633Z,2.25
2018-07-07T05:37:43.764Z,2.05
2018-07-07T05:40:11.956Z,1.82
2018-07-07T05:42:40.144Z,1.98
2018-07-07T05:45:08.340Z,2.00
2018-07-07T05:47:36.779Z,1.90
2018-07-07T05:50:05.120Z,2.10
2018-07-07T05:52:33.242Z,2.02
2018-07-07T05:55:01.505Z,2.00
2018-07-07T05:57:30.205Z,1.95
2018-07-07T05:59:58.578Z,1.80
2018-07-07T06:02:26.859Z,1.70
2018-07-07T06:04:55.013Z,1.87
2018-07-07T06:07:23.189Z,1.90
2018-07-07T06:09:51.415Z,1.87
2018-07-07T06:12:20.153Z,1.70
2018-07-07T06:14:48.427Z,2.13
2018-07-07T06:17:16.534Z,2.40
2018-07-07T06:19:44.898Z,1.80
2018-07-07T06:22:13.027Z,1.70
2018-07-07T06:24:41.168Z,2.00
2018-07-07T06:27:09.603Z,1.83
2018-07-07T06:29:38.351Z,2.37
2018-07-07T06:32:06.599Z,2.03
2018-07-07T06:34:34.852Z,1.90
2018-07-07T06:37:03.161Z,1.50
2018-07-07T06:39:31.305Z,1.70
2018-07-07T06:42:00.292Z,1.33
2018-07-07T06:44:28.463Z,1.73
2018-07-07T06:46:57.264Z,2.00
2018-07-07T06:49:26.157Z,1.73
2018-07-07T06:51:54.329Z,2.13
2018-07-07T06:54:22.488Z,1.80
2018-07-07T06:56:50.714Z,2.27
2018-07-07T06:59:19.236Z,1.63
2018-07-07T07:01:47.436Z,1.87
2018-07-07T07:04:16.632Z,1.47
2018-07-07T07:06:44.988Z,2.13
2018-07-07T07:09:13.288Z,1.27
2018-07-07T07:11:42.152Z,1.57
2018-07-07T07:14:10.598Z,1.63
2018-07-07T07:16:38.727Z,1.27
2018-07-07T07:19:09.356Z,1.47
2018-07-07T07:21:37.849Z,1.90
2018-07-07T07:24:07.132Z,1.60
2018-07-07T07:26:35.307Z,1.70
2018-07-07T07:29:03.780Z,1.43
2018-07-07T07:31:32.081Z,1.40
2018-07-07T07:34:00.284Z,2.20
2018-07-07T07:36:46.272Z,1.70
2018-07-07T07:39:15.442Z,1.73
2018-07-07T07:41:44.312Z,1.23
2018-07-07T07:44:12.788Z,1.80
2018-07-07T07:46:41.073Z,1.27
2018-07-07T07:49:09.864Z,1.70
2018-07-07T07:51:38.046Z,1.83
2018-07-07T07:54:06.233Z,1.77
2018-07-07T07:56:34.536Z,1.63
2018-07-07T07:59:02.724Z,1.67
2018-07-07T08:01:30.852Z,1.60
2018-07-07T08:03:59.651Z,1.90
2018-07-07T08:06:27.801Z,1.70
2018-07-07T08:08:56.892Z,1.60
2018-07-07T08:11:25.059Z,2.00
2018-07-07T08:13:53.239Z,1.60
2018-07-07T08:16:21.536Z,2.00
2018-07-07T08:18:49.708Z,1.60
2018-07-07T08:21:17.970Z,1.47
2018-07-07T08:23:46.144Z,1.27
2018-07-07T08:26:14.403Z,1.60
2018-07-07T08:28:43.345Z,1.70
2018-07-07T08:31:11.618Z,1.20
2018-07-07T08:33:39.747Z,1.50
2018-07-07T08:36:08.130Z,1.50
2018-07-07T08:38:36.538Z,1.70
2018-07-07T08:41:05.006Z,1.90
2018-07-07T08:43:33.194Z,1.80
2018-07-07T08:46:01.336Z,1.50
2018-07-07T08:48:29.521Z,1.67
2018-07-07T08:50:57.813Z,1.40
2018-07-07T08:53:26.106Z,1.60
2018-07-07T08:55:54.874Z,1.33
2018-07-07T08:58:23.290Z,1.60
2018-07-07T09:00:51.478Z,1.90
2018-07-07T09:03:19.594Z,1.70
2018-07-07T09:05:47.750Z,1.43
2018-07-07T09:08:16.490Z,1.70
2018-07-07T09:10:45.188Z,1.50
2018-07-07T09:13:13.454Z,1.40
2018-07-07T09:15:42.304Z,1.90
2018-07-07T09:18:10.517Z,1.63
2018-07-07T09:20:38.691Z,1.90
2018-07-07T09:23:06.937Z,1.47
2018-07-07T09:25:35.078Z,1.73
2018-07-07T09:28:03.298Z,1.77
2018-07-07T09:30:31.489Z,1.70
2018-07-07T09:33:00.443Z,1.67
2018-07-07T09:35:29.250Z,2.20
2018-07-07T09:37:57.394Z,2.30
2018-07-07T09:40:26.502Z,2.07
2018-07-07T09:42:54.649Z,2.20
2018-07-07T09:45:22.822Z,1.77
2018-07-07T09:47:51.682Z,2.00
2018-07-07T09:50:20.511Z,2.13
2018-07-07T09:52:48.680Z,2.10
2018-07-07T09:55:16.886Z,1.83
2018-07-07T09:57:45.036Z,2.60
2018-07-07T10:00:16.267Z,2.43
2018-07-07T10:02:45.081Z,2.07
2018-07-07T10:05:13.495Z,2.30
2018-07-07T10:07:41.722Z,2.87
2018-07-07T10:10:10.970Z,2.70
2018-07-07T10:12:39.927Z,2.50
2018-07-07T10:15:08.092Z,2.50
2018-07-07T10:17:36.908Z,2.70
2018-07-07T10:20:05.366Z,2.50
2018-07-07T10:22:33.669Z,2.73
2018-07-07T10:25:02.739Z,2.43
2018-07-07T10:27:31.953Z,2.23
2018-07-07T10:30:00.130Z,2.87
2018-07-07T10:32:28.424Z,2.40
2018-07-07T10:34:56.899Z,2.60
2018-07-07T10:37:25.209Z,2.97
2018-07-07T10:39:54.039Z,2.90
2018-07-07T10:42:22.206Z,3.00
2018-07-07T10:44:50.382Z,1.97
2018-07-07T10:47:18.594Z,2.40
2018-07-07T10:49:46.846Z,1.97
2018-07-07T10:52:15.817Z,2.70
2018-07-07T10:54:44.036Z,2.70
2018-07-07T10:57:12.355Z,2.03
2018-07-07T10:59:40.540Z,2.43
2018-07-07T11:02:08.719Z,2.40
2018-07-07T11:04:37.014Z,2.30
2018-07-07T11:07:05.330Z,2.20
2018-07-07T11:09:33.456Z,2.07
2018-07-07T11:12:01.625Z,1.93
2018-07-07T11:14:29.994Z,2.13
2018-07-07T11:16:58.156Z,2.80
2018-07-07T11:19:26.337Z,1.90
2018-07-07T11:21:54.625Z,2.30
2018-07-07T11:24:22.993Z,2.23
2018-07-07T11:26:52.741Z,2.10
2018-07-07T11:29:21.496Z,2.47
2018-07-07T11:31:49.814Z,2.27
2018-07-07T11:34:18.051Z,2.23
2018-07-07T11:36:46.425Z,2.20
2018-07-07T11:39:14.644Z,2.37
2018-07-07T11:41:42.784Z,2.50
2018-07-07T11:44:10.992Z,1.87
2018-07-07T11:46:39.938Z,1.80
2018-07-07T11:49:08.263Z,2.00
2018-07-07T11:51:36.516Z,2.13
2018-07-07T11:54:04.628Z,2.20
2018-07-07T11:56:33.050Z,2.20
2018-07-07T11:59:01.215Z,2.03
2018-07-07T12:01:29.504Z,2.23
2018-07-07T12:03:57.664Z,2.13
2018-07-07T12:06:25.847Z,2.20
2018-07-07T12:08:54.241Z,2.00
2018-07-07T12:11:22.484Z,1.70
2018-07-07T12:13:50.588Z,1.87
2018-07-07T12:16:19.134Z,1.70
2018-07-07T12:18:47.356Z,2.40
2018-07-07T12:21:15.547Z,1.70
2018-07-07T12:23:43.695Z,2.37
2018-07-07T12:26:11.921Z,1.73
2018-07-07T12:28:40.308Z,1.97
2018-07-07T12:31:08.518Z,1.77
2018-07-07T12:33:36.775Z,1.80
2018-07-07T12:36:04.996Z,1.83
2018-07-07T12:38:33.909Z,1.57
2018-07-07T12:41:02.074Z,1.50
2018-07-07T12:43:30.346Z,1.47
2018-07-07T12:45:59.162Z,1.70
2018-07-07T12:48:27.278Z,1.60
2018-07-07T12:50:56.056Z,1.87
2018-07-07T12:53:24.239Z,1.70
2018-07-07T12:55:52.491Z,1.60
2018-07-07T12:58:20.723Z,2.10
2018-07-07T13:00:48.956Z,2.20
2018-07-07T13:03:17.344Z,1.63
2018-07-07T13:05:45.512Z,1.70
2018-07-07T13:08:13.695Z,1.77
2018-07-07T13:10:42.014Z,1.90
2018-07-07T13:13:10.249Z,2.00
2018-07-07T13:15:38.414Z,1.80
2018-07-07T13:18:07.635Z,1.60
2018-07-07T13:20:35.897Z,1.97
2018-07-07T13:23:04.654Z,1.93
2018-07-07T13:25:32.777Z,1.70
2018-07-07T13:28:00.913Z,2.13
2018-07-07T13:30:29.104Z,1.70
2018-07-07T13:32:57.254Z,1.90
2018-07-07T13:35:25.573Z,1.60
2018-07-07T13:37:53.827Z,1.70
2018-07-07T13:40:22.141Z,1.53
2018-07-07T13:42:50.606Z,1.93
2018-07-07T13:45:18.911Z,1.57
2018-07-07T13:47:47.969Z,1.90
2018-07-07T13:50:16.102Z,1.90
2018-07-07T13:52:44.286Z,1.90
2018-07-07T13:55:12.437Z,1.60
2018-07-07T13:57:40.686Z,2.20
2018-07-07T14:00:10.254Z,1.80
2018-07-07T14:02:38.392Z,1.70
2018-07-07T14:05:06.786Z,1.70
2018-07-07T14:07:35.277Z,1.57
2018-07-07T14:10:03.646Z,1.60
2018-07-07T14:12:31.819Z,1.80
2018-07-07T14:15:01.057Z,2.00
2018-07-07T14:17:29.300Z,2.00
2018-07-07T14:19:58.134Z,1.97
2018-07-07T14:22:26.870Z,1.60
2018-07-07T14:24:55.152Z,1.37
2018-07-07T14:27:23.929Z,1.40
2018-07-07T14:29:52.109Z,1.50
2018-07-07T14:32:20.841Z,1.80
2018-07-07T14:34:48.964Z,1.73
2018-07-07T14:37:17.217Z,1.60
2018-07-07T14:39:54.331Z,1.40
2018-07-07T14:42:27.790Z,1.83
2018-07-07T14:44:56.013Z,1.70
2018-07-07T14:47:24.923Z,1.50
2018-07-07T14:49:53.152Z,1.37
2018-07-07T14:52:21.542Z,1.63
2018-07-07T14:54:49.726Z,1.53
2018-07-07T14:57:18.005Z,1.97
2018-07-07T14:59:46.292Z,1.90
2018-07-07T15:02:14.434Z,1.97
2018-07-07T15:04:42.756Z,1.67
2018-07-07T15:07:11.037Z,1.63
2018-07-07T15:09:39.253Z,1.63
2018-07-07T15:12:07.437Z,1.40
2018-07-07T15:14:36.314Z,1.70
2018-07-07T15:17:04.507Z,1.60
2018-07-07T15:19:33.389Z,1.90
2018-07-07T15:22:01.593Z,1.80
2018-07-07T15:24:30.441Z,1.63
2018-07-07T15:26:58.617Z,1.87
2018-07-07T15:29:26.814Z,1.53
2018-07-07T15:31:54.964Z,1.67
2018-07-07T15:34:23.289Z,1.50
2018-07-07T15:36:51.535Z,1.30
2018-07-07T15:39:20.252Z,2.07
2018-07-07T15:41:48.408Z,1.60
2018-07-07T15:44:16.700Z,1.77
2018-07-07T15:46:45.072Z,2.10
2018-07-07T15:49:13.230Z,2.00
2018-07-07T15:51:41.523Z,1.70
2018-07-07T15:54:09.918Z,2.07
2018-07-07T15:56:38.554Z,1.70
2018-07-07T15:59:06.731Z,2.07
2018-07-07T16:01:34.915Z,1.97
2018-07-07T16:04:04.254Z,1.70
2018-07-07T16:06:32.813Z,1.60
2018-07-07T16:09:01.295Z,1.63
2018-07-07T16:11:29.563Z,1.63
2018-07-07T16:13:57.827Z,1.53
2018-07-07T16:16:26.013Z,1.20
2018-07-07T16:18:54.249Z,2.57
2018-07-07T16:21:22.455Z,1.80
2018-07-07T16:23:50.639Z,1.93
2018-07-07T16:26:19.104Z,1.83
2018-07-07T16:28:47.285Z,1.80
2018-07-07T16:31:16.882Z,1.20
2018-07-07T16:33:45.072Z,1.90
2018-07-07T16:36:13.254Z,1.32
2018-07-07T16:38:41.417Z,1.37
2018-07-07T16:41:10.137Z,2.35
2018-07-07T16:43:38.284Z,1.82
2018-07-07T16:46:06.451Z,1.70
2018-07-07T16:48:35.120Z,2.20
2018-07-07T16:51:03.241Z,1.30
2018-07-07T16:53:31.486Z,1.50
2018-07-07T16:55:59.600Z,1.47
2018-07-07T16:58:29.284Z,1.80
2018-07-07T17:00:57.458Z,1.40
2018-07-07T17:03:25.690Z,1.20
2018-07-07T17:05:53.998Z,1.70
2018-07-07T17:08:22.244Z,1.52
2018-07-07T17:10:50.538Z,1.40
2018-07-07T17:13:19.254Z,1.30
2018-07-07T17:15:47.997Z,0.98
2018-07-07T17:18:16.796Z,1.37
2018-07-07T17:20:44.953Z,1.45
2018-07-07T17:23:14.863Z,2.17
2018-07-07T17:25:43.081Z,1.60
2018-07-07T17:28:11.319Z,1.80
2018-07-07T17:30:39.516Z,1.80
2018-07-07T17:33:08.413Z,1.40
2018-07-07T17:35:36.555Z,1.57
2018-07-07T17:38:04.751Z,1.35
2018-07-07T17:40:32.894Z,1.20
2018-07-07T17:43:01.761Z,1.40
2018-07-07T17:45:30.518Z,1.52
2018-07-07T17:47:59.599Z,1.35
2018-07-07T17:50:28.082Z,1.32
2018-07-07T17:52:56.361Z,1.27
2018-07-07T17:55:25.590Z,1.27
2018-07-07T17:57:53.737Z,1.40
2018-07-07T18:00:21.982Z,1.42
2018-07-07T18:02:50.179Z,1.45
2018-07-07T18:05:18.325Z,1.00
2018-07-07T18:07:46.510Z,1.27
2018-07-07T18:10:15.412Z,1.10
2018-07-07T18:12:43.564Z,1.07
2018-07-07T18:15:11.891Z,1.00
2018-07-07T18:17:40.053Z,1.45
2018-07-07T18:20:08.848Z,1.10
2018-07-07T18:22:37.463Z,1.10
2018-07-07T18:25:05.761Z,1.60
2018-07-07T18:27:34.449Z,1.10
2018-07-07T18:30:02.868Z,2.10
2018-07-07T18:32:31.108Z,2.53
2018-07-07T18:34:59.304Z,2.33
2018-07-07T18:37:27.639Z,1.80
2018-07-07T18:39:55.886Z,1.30
2018-07-07T18:42:24.047Z,1.63
2018-07-07T18:44:52.807Z,1.43
2018-07-07T18:47:21.890Z,1.63
2018-07-07T18:49:50.517Z,1.53
2018-07-07T18:52:18.873Z,1.00
2018-07-07T18:54:47.104Z,1.17
2018-07-07T18:57:15.305Z,1.60
2018-07-07T18:59:43.656Z,1.10
2018-07-07T19:02:11.989Z,1.77
2018-07-07T19:04:40.109Z,1.50
2018-07-07T19:07:08.319Z,1.43
2018-07-07T19:09:36.569Z,1.37
2018-07-07T19:12:04.754Z,1.40
2018-07-07T19:14:33.115Z,1.40
2018-07-07T19:17:01.525Z,1.20
2018-07-07T19:19:29.739Z,1.40
2018-07-07T19:22:03.293Z,1.37
2018-07-07T19:24:36.926Z,1.23
2018-07-07T19:27:06.554Z,1.43
2018-07-07T19:29:34.714Z,1.83
2018-07-07T19:32:08.139Z,1.20
2018-07-07T19:34:41.838Z,1.67
2018-07-07T19:37:15.301Z,1.53
2018-07-07T19:39:45.747Z,1.73
2018-07-07T19:42:14.485Z,1.53
2018-07-07T19:44:43.388Z,1.60
2018-07-07T19:47:12.287Z,1.50
2018-07-07T19:49:41.359Z,1.33
2018-07-07T19:52:10.991Z,1.60
2018-07-07T19:54:39.160Z,1.60
2018-07-07T19:57:07.433Z,1.37
2018-07-07T19:59:35.706Z,1.50
2018-07-07T20:02:03.995Z,1.43
2018-07-07T20:04:32.219Z,1.70
2018-07-07T20:07:00.416Z,1.60
2018-07-07T20:09:29.214Z,1.80
2018-07-07T20:11:57.392Z,1.23
2018-07-07T20:14:26.627Z,1.30
2018-07-07T20:17:00.463Z,1.57
2018-07-07T20:19:33.058Z,1.50
2018-07-07T20:22:02.508Z,1.40
2018-07-07T20:24:32.890Z,1.50
2018-07-07T20:27:06.368Z,1.70
2018-07-07T20:29:34.574Z,1.37
2018-07-07T20:32:02.818Z,1.30
2018-07-07T20:34:31.819Z,1.33
2018-07-07T20:37:00.106Z,1.13
2018-07-07T20:39:28.289Z,1.70
2018-07-07T20:41:56.466Z,1.20
2018-07-07T20:44:24.680Z,1.30
2018-07-07T20:46:52.827Z,1.90
2018-07-07T20:49:21.195Z,1.70
2018-07-07T20:51:49.345Z,1.93
2018-07-07T20:54:19.274Z,2.20
2018-07-07T20:56:47.463Z,2.00
2018-07-07T20:59:15.604Z,2.70
2018-07-07T21:01:44.417Z,2.53
2018-07-07T21:04:12.575Z,2.37
2018-07-07T21:06:40.755Z,2.47
2018-07-07T21:09:08.943Z,2.07
2018-07-07T21:11:37.833Z,2.70
2018-07-07T21:14:06.025Z,3.00
2018-07-07T21:16:35.207Z,2.70
2018-07-07T21:19:03.372Z,2.50
2018-07-07T21:21:31.561Z,2.30
2018-07-07T21:23:59.806Z,2.70
2018-07-07T21:26:27.944Z,2.57
2018-07-07T21:28:56.154Z,2.10
2018-07-07T21:31:24.599Z,2.20
2018-07-07T21:33:52.866Z,2.30
2018-07-07T21:36:21.018Z,2.33
2018-07-07T21:38:49.799Z,2.47
2018-07-07T21:41:18.102Z,3.23
2018-07-07T21:43:46.834Z,2.63
2018-07-07T21:46:15.162Z,2.60
2018-07-07T21:48:44.366Z,3.03
2018-07-07T21:51:13.232Z,3.27
2018-07-07T21:53:42.528Z,3.20
2018-07-07T21:56:10.809Z,2.90
2018-07-07T21:58:38.950Z,2.53
2018-07-07T22:01:13.709Z,3.00
2018-07-07T22:03:47.456Z,3.63
2018-07-07T22:06:21.136Z,3.47
2018-07-07T22:08:49.421Z,4.67
2018-07-07T22:11:17.640Z,3.37
2018-07-07T22:13:45.823Z,3.10
2018-07-07T22:16:14.284Z,2.87
2018-07-07T22:18:42.484Z,2.83
2018-07-07T22:21:16.189Z,2.27
2018-07-07T22:23:47.561Z,2.73
2018-07-07T22:26:17.120Z,3.33
2018-07-07T22:28:48.793Z,2.97
2018-07-07T22:31:18.430Z,2.80
2018-07-07T22:33:46.694Z,2.43
2018-07-07T22:36:20.511Z,2.27
2018-07-07T22:38:53.998Z,2.97
2018-07-07T22:41:26.675Z,2.80
2018-07-07T22:43:54.829Z,2.77
2018-07-07T22:46:23.008Z,2.50
2018-07-07T22:48:52.296Z,2.40
2018-07-07T22:51:21.620Z,2.37
2018-07-07T22:53:50.533Z,2.47
2018-07-07T22:56:18.670Z,2.43
2018-07-07T22:58:47.566Z,2.43
2018-07-07T23:01:15.715Z,2.90
2018-07-07T23:03:43.931Z,2.43
2018-07-07T23:06:12.167Z,2.23
2018-07-07T23:08:40.450Z,2.57
2018-07-07T23:11:08.651Z,2.87
2018-07-07T23:13:36.813Z,3.30
2018-07-07T23:16:05.286Z,2.77
2018-07-07T23:18:34.142Z,2.90
2018-07-07T23:21:02.600Z,2.50
2018-07-07T23:23:30.769Z,2.10
2018-07-07T23:25:58.915Z,2.70
2018-07-07T23:28:27.102Z,2.27
2018-07-07T23:30:55.463Z,2.50
2018-07-07T23:33:23.587Z,2.40
2018-07-07T23:35:52.500Z,2.43
2018-07-07T23:38:20.645Z,3.00
2018-07-07T23:40:49.036Z,2.33
2018-07-07T23:43:17.179Z,2.23
2018-07-07T23:45:45.441Z,2.53
2018-07-07T23:48:14.197Z,2.13
2018-07-07T23:50:42.446Z,2.40
2018-07-07T23:53:10.578Z,2.47
2018-07-07T23:55:38.941Z,2.37
2018-07-07T23:58:07.153Z,2.10
